createdAt,value
2018-06-10T00:00:18.462Z,12.37
2018-06-10T00:02:47.203Z,14.00
2018-06-10T00:05:15.946Z,12.80
2018-06-10T00:07:44.647Z,13.05
2018-06-10T00:10:13.372Z,12.47
2018-06-10T00:12:42.075Z,13.60
2018-06-10T00:15:10.845Z,11.65
2018-06-10T00:17:39.606Z,12.45
2018-06-10T00:20:08.359Z,12.82
2018-06-10T00:22:37.125Z,12.37
2018-06-10T00:25:06.350Z,12.75
2018-06-10T00:27:34.660Z,17.50
2018-06-10T00:30:03.504Z,15.50
2018-06-10T00:32:32.281Z,16.10
2018-06-10T00:35:01.002Z,15.10
2018-06-10T00:37:29.711Z,15.47
2018-06-10T00:39:58.403Z,18.80
2018-06-10T00:42:27.150Z,14.47
2018-06-10T00:44:55.910Z,14.33
2018-06-10T00:47:24.640Z,13.33
2018-06-10T00:49:53.390Z,14.63
2018-06-10T00:52:22.113Z,13.90
2018-06-10T00:54:50.989Z,12.97
2018-06-10T00:57:19.847Z,14.30
2018-06-10T00:59:48.581Z,14.87
2018-06-10T01:02:17.294Z,16.93
2018-06-10T01:04:45.995Z,15.47
2018-06-10T01:07:14.719Z,16.93
2018-06-10T01:09:43.430Z,17.27
2018-06-10T01:12:12.160Z,16.53
2018-06-10T01:14:40.918Z,15.13
2018-06-10T01:17:09.633Z,14.23
2018-06-10T01:19:38.487Z,16.47
2018-06-10T01:22:07.218Z,14.90
2018-06-10T01:24:35.944Z,16.90
2018-06-10T01:27:04.670Z,16.80
2018-06-10T01:29:33.457Z,16.60
2018-06-10T01:32:02.308Z,19.13
2018-06-10T01:34:31.000Z,16.43
2018-06-10T01:36:59.654Z,15.93
2018-06-10T01:39:28.346Z,19.07
2018-06-10T01:41:56.715Z,15.57
2018-06-10T01:44:25.427Z,15.83
2018-06-10T01:46:54.122Z,15.23
2018-06-10T01:49:22.825Z,18.77
2018-06-10T01:51:51.554Z,16.73
2018-06-10T01:54:20.286Z,18.13
2018-06-10T01:56:49.056Z,17.23
2018-06-10T01:59:17.773Z,18.30
2018-06-10T02:01:46.471Z,16.00
2018-06-10T02:04:15.183Z,21.07
2018-06-10T02:06:43.916Z,24.90
2018-06-10T02:09:12.650Z,20.93
2018-06-10T02:11:41.358Z,19.80
2018-06-10T02:14:10.074Z,22.10
2018-06-10T02:16:38.769Z,22.47
2018-06-10T02:19:07.633Z,19.03
2018-06-10T02:21:36.307Z,23.07
2018-06-10T02:24:05.020Z,22.03
2018-06-10T02:26:33.757Z,21.90
2018-06-10T02:29:02.476Z,21.03
2018-06-10T02:31:31.182Z,18.30
2018-06-10T02:33:59.949Z,18.50
2018-06-10T02:36:28.722Z,18.60
2018-06-10T02:38:57.404Z,20.40
2018-06-10T02:41:26.119Z,22.90
2018-06-10T02:43:54.822Z,21.63
2018-06-10T02:46:23.563Z,21.07
2018-06-10T02:48:52.314Z,18.40
2018-06-10T02:51:20.989Z,16.10
2018-06-10T02:53:49.695Z,16.83
2018-06-10T02:56:18.439Z,15.13
2018-06-10T02:58:47.289Z,13.67
2018-06-10T03:01:16.051Z,13.30
2018-06-10T03:03:44.781Z,17.27
2018-06-10T03:06:13.471Z,14.60
2018-06-10T03:08:42.199Z,14.80
2018-06-10T03:11:10.517Z,15.20
2018-06-10T03:13:39.244Z,17.73
2018-06-10T03:16:07.970Z,19.13
2018-06-10T03:18:36.659Z,18.40
2018-06-10T03:21:05.391Z,19.40
2018-06-10T03:23:34.048Z,26.00
2018-06-10T03:26:02.770Z,27.60
2018-06-10T03:28:31.491Z,33.47
2018-06-10T03:30:59.972Z,37.60
2018-06-10T03:33:28.740Z,40.17
2018-06-10T03:35:57.565Z,39.20
2018-06-10T03:38:26.541Z,48.23
2018-06-10T03:40:55.212Z,49.53
2018-06-10T03:43:24.244Z,46.43
2018-06-10T03:45:52.954Z,49.43
2018-06-10T03:48:21.722Z,41.00
2018-06-10T03:50:50.436Z,52.27
2018-06-10T03:53:19.180Z,45.67
2018-06-10T03:55:47.885Z,52.67
2018-06-10T03:58:16.638Z,53.00
2018-06-10T04:00:45.361Z,52.53
2018-06-10T04:03:13.672Z,51.73
2018-06-10T04:05:42.362Z,54.43
2018-06-10T04:08:11.051Z,51.13
2018-06-10T04:10:39.788Z,49.60
2018-06-10T04:13:08.472Z,41.50
2018-06-10T04:15:37.134Z,44.27
2018-06-10T04:18:17.891Z,47.90
2018-06-10T04:20:47.678Z,51.07
2018-06-10T04:23:16.730Z,44.23
2018-06-10T04:25:45.212Z,44.87
2018-06-10T04:28:14.180Z,44.43
2018-06-10T04:30:42.910Z,38.57
2018-06-10T04:33:12.010Z,46.50
2018-06-10T04:35:40.750Z,43.57
2018-06-10T04:38:09.459Z,51.90
2018-06-10T04:40:38.189Z,44.87
2018-06-10T04:43:07.292Z,42.60
2018-06-10T04:45:36.478Z,35.80
2018-06-10T04:48:05.301Z,48.13
2018-06-10T04:50:34.010Z,39.63
2018-06-10T04:53:02.787Z,40.80
2018-06-10T04:55:31.428Z,37.47
2018-06-10T04:58:00.687Z,33.17
2018-06-10T05:00:29.467Z,27.33
2018-06-10T05:02:58.597Z,28.93
2018-06-10T05:05:28.594Z,31.17
2018-06-10T05:07:57.662Z,31.13
2018-06-10T05:10:26.894Z,32.45
2018-06-10T05:12:55.957Z,28.47
2018-06-10T05:15:24.680Z,29.03
2018-06-10T05:17:53.463Z,30.63
2018-06-10T05:20:22.186Z,29.63
2018-06-10T06:44:50.117Z,16.37
2018-06-10T06:47:18.779Z,18.73
2018-06-10T06:49:50.473Z,16.00
2018-06-10T06:52:24.139Z,14.27
2018-06-10T06:54:53.614Z,15.47
2018-06-10T06:57:22.458Z,15.00
2018-06-10T06:59:51.190Z,15.63
2018-06-10T07:02:19.908Z,15.40
2018-06-10T07:04:49.112Z,16.37
2018-06-10T07:07:17.456Z,14.70
2018-06-10T07:09:46.381Z,15.03
2018-06-10T07:12:15.961Z,14.73
2018-06-10T07:14:45.729Z,15.20
2018-06-10T07:17:14.486Z,13.60
2018-06-10T07:19:45.827Z,12.57
2018-06-10T07:22:14.558Z,14.83
2018-06-10T07:24:44.089Z,13.58
2018-06-10T07:27:12.886Z,14.65
2018-06-10T07:29:42.737Z,16.35
2018-06-10T07:32:11.899Z,15.88
2018-06-10T07:34:40.892Z,15.10
2018-06-10T07:37:09.743Z,16.47
2018-06-10T07:39:39.102Z,14.50
2018-06-10T07:42:07.823Z,14.50
2018-06-10T07:44:36.995Z,16.52
2018-06-10T07:47:05.896Z,15.32
2018-06-10T07:49:34.930Z,14.35
2018-06-10T07:52:04.364Z,13.85
2018-06-10T07:54:33.293Z,13.32
2018-06-10T07:57:01.627Z,12.15
2018-06-10T07:59:30.790Z,11.75
2018-06-10T08:01:59.253Z,11.68
2018-06-10T08:04:28.040Z,11.15
2018-06-10T08:06:56.863Z,12.00
2018-06-10T08:09:26.378Z,12.47
2018-06-10T08:11:55.748Z,12.88
2018-06-10T08:14:24.533Z,11.48
2018-06-10T08:16:53.275Z,13.80
2018-06-10T08:19:22.103Z,12.63
2018-06-10T08:21:50.541Z,12.43
2018-06-10T08:24:19.238Z,12.20
2018-06-10T08:26:48.000Z,11.00
2018-06-10T08:29:16.726Z,12.25
2018-06-10T08:31:45.547Z,11.12
2018-06-10T08:34:14.423Z,9.95
2018-06-10T08:36:43.119Z,10.88
2018-06-10T08:39:11.810Z,9.88
2018-06-10T08:41:40.554Z,11.70
2018-06-10T08:44:09.314Z,11.68
2018-06-10T08:46:38.031Z,13.25
2018-06-10T08:49:10.471Z,14.73
2018-06-10T08:51:39.202Z,17.70
2018-06-10T08:54:08.807Z,18.13
2018-06-10T08:56:37.568Z,24.07
2018-06-10T08:59:06.435Z,23.20
2018-06-10T09:01:35.281Z,21.33
2018-06-10T09:04:04.068Z,19.17
2018-06-10T09:06:32.932Z,20.97
2018-06-10T09:09:01.706Z,19.73
2018-06-10T09:11:30.372Z,20.60
2018-06-10T09:13:59.115Z,19.13
2018-06-10T09:16:27.846Z,19.47
2018-06-10T09:18:56.706Z,22.00
2018-06-10T09:21:25.608Z,22.53
2018-06-10T09:23:54.610Z,20.33
2018-06-10T09:26:25.650Z,18.57
2018-06-10T09:28:54.412Z,18.10
2018-06-10T09:31:23.133Z,16.43
2018-06-10T09:33:51.857Z,17.27
2018-06-10T09:36:20.606Z,16.57
2018-06-10T09:38:49.314Z,18.50
2018-06-10T09:41:18.062Z,18.33
2018-06-10T09:43:46.784Z,18.53
2018-06-10T09:46:16.131Z,18.10
2018-06-10T09:48:44.491Z,18.60
2018-06-10T09:51:13.265Z,14.83
2018-06-10T09:53:41.943Z,18.10
2018-06-10T09:56:10.953Z,13.98
2018-06-10T09:58:39.828Z,14.60
2018-06-10T10:01:08.525Z,17.65
2018-06-10T10:03:37.313Z,15.63
2018-06-10T10:06:06.029Z,16.15
2018-06-10T10:08:34.756Z,14.00
2018-06-10T10:11:03.591Z,14.47
2018-06-10T10:13:32.579Z,16.85
2018-06-10T10:16:01.728Z,13.77
2018-06-10T10:18:32.659Z,16.42
2018-06-10T10:21:01.441Z,16.17
2018-06-10T10:23:30.161Z,16.50
2018-06-10T10:25:58.959Z,14.45
2018-06-10T10:28:27.950Z,18.77
2018-06-10T10:30:56.687Z,18.00
2018-06-10T10:33:25.643Z,20.20
2018-06-10T10:35:54.413Z,20.95
2018-06-10T10:38:23.383Z,21.48
2018-06-10T10:40:52.551Z,22.35
2018-06-10T10:43:21.396Z,19.90
2018-06-10T10:45:50.389Z,20.57
2018-06-10T10:48:19.242Z,20.30
2018-06-10T10:50:47.942Z,20.13
2018-06-10T10:53:16.834Z,22.50
2018-06-10T10:55:46.216Z,20.68
2018-06-10T10:58:14.984Z,26.37
2018-06-10T11:00:43.826Z,24.65
2018-06-10T11:03:12.273Z,25.00
2018-06-10T11:05:40.664Z,21.68
2018-06-10T11:08:09.540Z,27.80
2018-06-10T11:10:40.346Z,28.50
2018-06-10T11:13:09.149Z,29.72
2018-06-10T11:15:38.099Z,28.15
2018-06-10T11:18:06.797Z,30.02
2018-06-10T11:20:35.489Z,29.63
2018-06-10T11:23:04.220Z,29.40
2018-06-10T11:25:32.978Z,27.67
2018-06-10T11:28:01.759Z,29.70
2018-06-10T11:30:30.442Z,29.33
2018-06-10T11:32:59.142Z,30.03
2018-06-10T11:35:28.122Z,28.77
2018-06-10T11:37:56.845Z,29.60
2018-06-10T11:40:25.596Z,28.80
2018-06-10T11:42:54.354Z,26.80
2018-06-10T11:45:23.318Z,31.83
2018-06-10T11:47:52.167Z,28.23
2018-06-10T11:50:21.007Z,31.87
2018-06-10T11:52:49.731Z,31.03
2018-06-10T11:55:18.517Z,28.43
2018-06-10T11:57:53.174Z,25.27
2018-06-10T12:00:21.918Z,29.65
2018-06-10T12:02:51.056Z,30.93
2018-06-10T12:05:20.467Z,27.97
2018-06-10T12:07:49.388Z,26.77
2018-06-10T12:10:18.154Z,24.98
2018-06-10T12:12:46.945Z,25.88
2018-06-10T12:15:15.684Z,26.68
2018-06-10T12:17:44.780Z,22.58
2018-06-10T12:20:14.033Z,25.20
2018-06-10T12:22:42.975Z,24.23
2018-06-10T12:25:11.672Z,24.12
2018-06-10T12:27:43.875Z,26.50
2018-06-10T12:30:12.585Z,23.60
2018-06-10T12:32:41.626Z,23.87
2018-06-10T12:35:10.394Z,22.70
2018-06-10T12:37:40.696Z,28.83
2018-06-10T12:40:10.359Z,23.15
2018-06-10T12:42:38.728Z,24.12
2018-06-10T12:45:07.194Z,21.75
2018-06-10T12:47:35.983Z,22.95
2018-06-10T12:50:04.940Z,26.40
2018-06-10T12:52:33.715Z,23.67
2018-06-10T12:55:02.438Z,25.92
2018-06-10T12:57:31.191Z,22.98
2018-06-10T12:59:59.915Z,24.07
2018-06-10T13:02:29.142Z,22.05
2018-06-10T13:04:57.894Z,24.47
2018-06-10T13:07:26.580Z,22.27
2018-06-10T13:09:55.301Z,24.82
2018-06-10T13:12:24.056Z,22.00
2018-06-10T13:14:52.768Z,22.87
2018-06-10T13:17:21.505Z,23.98
2018-06-10T13:19:50.275Z,20.70
2018-06-10T13:22:19.025Z,22.02
2018-06-10T13:24:47.805Z,24.00
2018-06-10T13:27:16.626Z,20.00
2018-06-10T13:29:45.349Z,21.02
2018-06-10T13:32:14.144Z,19.00
2018-06-10T13:34:44.398Z,20.50
2018-06-10T13:37:13.259Z,19.15
2018-06-10T13:39:42.119Z,17.77
2018-06-10T13:42:10.904Z,16.45
2018-06-10T13:44:39.625Z,18.50
2018-06-10T13:47:08.022Z,19.35
2018-06-10T13:49:36.726Z,17.95
2018-06-10T13:52:05.752Z,19.55
2018-06-10T13:54:34.444Z,18.80
2018-06-10T13:57:03.149Z,18.57
2018-06-10T13:59:31.529Z,16.30
2018-06-10T14:02:00.295Z,15.30
2018-06-10T14:04:29.125Z,15.58
2018-06-10T14:06:57.989Z,15.78
2018-06-10T14:09:26.762Z,15.32
2018-06-10T14:11:55.582Z,15.30
2018-06-10T14:14:23.967Z,14.38
2018-06-10T14:16:52.730Z,14.90
2018-06-10T14:19:21.526Z,14.90
2018-06-10T14:21:50.275Z,15.55
2018-06-10T14:24:19.403Z,16.73
2018-06-10T14:26:48.082Z,16.05
2018-06-10T14:29:16.890Z,15.93
2018-06-10T14:31:45.671Z,15.88
2018-06-10T14:34:14.696Z,14.65
2018-06-10T14:36:44.251Z,13.50
2018-06-10T14:39:12.618Z,15.58
2018-06-10T14:41:41.431Z,17.10
2018-06-10T14:44:10.271Z,15.68
2018-06-10T14:46:39.128Z,16.23
2018-06-10T14:49:08.063Z,17.60
2018-06-10T14:51:36.828Z,13.85
2018-06-10T14:54:05.666Z,15.65
2018-06-10T14:56:34.494Z,16.97
2018-06-10T14:59:03.241Z,14.05
2018-06-10T15:01:31.584Z,12.85
2018-06-10T15:04:00.525Z,16.52
2018-06-10T15:06:29.256Z,18.75
2018-06-10T15:08:58.352Z,14.78
2018-06-10T15:11:27.211Z,16.05
2018-06-10T15:13:55.988Z,16.70
2018-06-10T15:16:24.778Z,19.50
2018-06-10T15:18:53.818Z,19.55
2018-06-10T15:21:22.688Z,18.37
2018-06-10T15:23:51.400Z,16.52
2018-06-10T15:26:20.119Z,18.73
2018-06-10T15:28:48.833Z,15.65
2018-06-10T15:31:17.668Z,18.45
2018-06-10T15:33:46.419Z,21.30
2018-06-10T15:36:15.305Z,16.07
2018-06-10T15:38:44.089Z,10.93
2018-06-10T15:41:13.260Z,15.78
2018-06-10T15:43:42.034Z,15.53
2018-06-10T15:46:10.820Z,13.50
2018-06-10T15:48:39.554Z,12.13
2018-06-10T15:51:08.439Z,15.58
2018-06-10T15:53:37.452Z,13.18
2018-06-10T15:56:05.957Z,16.52
2018-06-10T15:58:34.654Z,15.05
2018-06-10T16:01:13.495Z,15.50
2018-06-10T16:03:42.330Z,15.15
2018-06-10T16:06:11.161Z,14.98
2018-06-10T16:08:39.970Z,15.28
2018-06-10T16:11:09.021Z,13.28
2018-06-10T16:13:37.956Z,16.82
2018-06-10T16:16:06.789Z,12.95
2018-06-10T16:18:35.468Z,13.45
2018-06-10T16:21:04.308Z,14.70
2018-06-10T16:23:33.021Z,13.40
2018-06-10T16:26:02.274Z,13.70
2018-06-10T16:28:31.202Z,13.72
2018-06-10T16:31:00.071Z,13.80
2018-06-10T16:33:28.552Z,13.95
2018-06-10T16:35:57.594Z,11.28
2018-06-10T16:38:26.683Z,10.70
2018-06-10T16:40:55.426Z,11.63
2018-06-10T16:43:25.570Z,9.48
2018-06-10T16:45:54.620Z,9.95
2018-06-10T16:48:23.323Z,10.70
2018-06-10T16:50:52.019Z,10.30
2018-06-10T16:53:20.763Z,10.82
2018-06-10T16:55:49.477Z,11.43
2018-06-10T16:58:17.860Z,12.63
2018-06-10T17:00:46.580Z,13.05
2018-06-10T17:03:15.292Z,12.80
2018-06-10T17:05:44.341Z,12.35
2018-06-10T17:08:13.120Z,16.87
2018-06-10T17:10:41.951Z,14.75
2018-06-10T17:13:11.257Z,13.80
2018-06-10T17:15:40.059Z,8.90
2018-06-10T17:18:08.805Z,11.35
2018-06-10T17:20:37.219Z,12.33
2018-06-10T17:23:05.932Z,13.50
2018-06-10T17:25:35.482Z,13.53
2018-06-10T17:28:03.885Z,13.10
2018-06-10T17:30:32.581Z,9.90
2018-06-10T17:33:01.292Z,9.85
2018-06-10T17:35:30.066Z,11.35
2018-06-10T17:37:58.868Z,10.03
2018-06-10T17:40:27.984Z,10.55
2018-06-10T17:42:56.768Z,9.60
2018-06-10T17:45:25.458Z,11.28
2018-06-10T17:47:54.494Z,10.48
2018-06-10T17:50:23.251Z,12.53
2018-06-10T17:52:51.976Z,10.18
2018-06-10T17:55:20.753Z,14.75
2018-06-10T17:57:49.811Z,10.18
2018-06-10T18:00:18.560Z,9.25
2018-06-10T18:02:47.279Z,10.80
2018-06-10T18:05:16.478Z,10.10
2018-06-10T18:07:46.155Z,10.90
2018-06-10T18:10:15.062Z,10.18
2018-06-10T18:12:43.825Z,9.90
2018-06-10T18:15:12.531Z,11.65
2018-06-10T18:17:41.371Z,9.83
2018-06-10T18:20:10.161Z,10.15
2018-06-10T18:22:38.899Z,9.45
2018-06-10T18:25:07.692Z,10.85
2018-06-10T18:27:37.203Z,10.80
2018-06-10T18:30:06.729Z,10.82
2018-06-10T18:32:35.620Z,11.65
2018-06-10T18:35:04.521Z,10.85
2018-06-10T18:37:33.354Z,13.80
2018-06-10T18:40:02.171Z,11.35
2018-06-10T18:42:31.041Z,15.78
2018-06-10T18:44:59.999Z,13.03
2018-06-10T18:47:28.860Z,13.62
2018-06-10T18:49:57.606Z,15.53
2018-06-10T18:52:26.632Z,17.82
2018-06-10T18:54:55.324Z,16.48
2018-06-10T18:57:24.256Z,13.28
2018-06-10T18:59:53.121Z,16.30
2018-06-10T19:02:21.997Z,15.95
2018-06-10T19:04:50.887Z,15.30
2018-06-10T19:07:19.603Z,15.43
2018-06-10T19:09:48.388Z,21.50
2018-06-10T19:12:17.234Z,15.70
2018-06-10T19:14:46.033Z,18.02
2018-06-10T19:17:14.763Z,16.30
2018-06-10T19:19:43.678Z,14.47
2018-06-10T19:22:12.697Z,16.27
2018-06-10T19:24:41.474Z,16.40
2018-06-10T19:27:10.697Z,16.75
2018-06-10T19:29:39.668Z,18.50
2018-06-10T19:32:08.034Z,17.47
2018-06-10T19:34:37.201Z,19.90
2018-06-10T19:37:06.147Z,16.30
2018-06-10T19:39:34.520Z,17.27
2018-06-10T19:42:02.930Z,18.47
2018-06-10T19:44:31.880Z,19.65
2018-06-10T19:47:00.758Z,16.97
2018-06-10T19:49:33.162Z,18.35
2018-06-10T19:52:02.144Z,18.57
2018-06-10T19:54:30.910Z,17.43
2018-06-10T19:56:59.749Z,17.73
2018-06-10T19:59:28.455Z,18.63
2018-06-10T20:01:57.302Z,17.13
2018-06-10T20:04:26.155Z,17.87
2018-06-10T20:06:54.859Z,14.07
2018-06-10T20:09:23.604Z,16.53
2018-06-10T20:11:52.379Z,16.07
2018-06-10T20:14:25.429Z,17.30
2018-06-10T20:16:54.342Z,16.37
2018-06-10T20:19:23.065Z,15.87
2018-06-10T20:21:51.824Z,17.07
2018-06-10T20:24:20.553Z,15.57
2018-06-10T20:26:49.257Z,14.73
2018-06-10T20:29:17.994Z,14.30
2018-06-10T20:31:46.347Z,14.93
2018-06-10T20:34:15.275Z,14.97
2018-06-10T20:36:44.140Z,15.43
2018-06-10T20:39:13.070Z,15.30
2018-06-10T20:41:41.885Z,15.10
2018-06-10T20:44:10.791Z,13.73
2018-06-10T20:46:41.141Z,18.63
2018-06-10T20:49:12.989Z,18.13
2018-06-10T20:51:41.770Z,14.53
2018-06-10T20:54:10.605Z,17.37
2018-06-10T20:56:39.402Z,14.53
2018-06-10T20:59:08.219Z,15.90
2018-06-10T21:01:37.098Z,14.77
2018-06-10T21:04:06.029Z,16.50
2018-06-10T21:06:34.863Z,16.60
2018-06-10T21:09:04.057Z,15.47
2018-06-10T21:11:32.876Z,16.53
2018-06-10T21:14:01.722Z,17.67
2018-06-10T21:16:30.633Z,15.87
2018-06-10T21:18:59.370Z,18.60
2018-06-10T21:21:29.354Z,19.67
2018-06-10T21:23:58.091Z,15.53
2018-06-10T21:26:26.860Z,19.07
2018-06-10T21:28:55.889Z,14.93
2018-06-10T21:31:24.735Z,16.27
2018-06-10T21:33:53.511Z,15.27
2018-06-10T21:36:22.286Z,18.43
2018-06-10T21:38:51.026Z,14.10
2018-06-10T21:41:19.965Z,14.97
2018-06-10T21:43:48.659Z,13.87
2018-06-10T21:46:17.819Z,16.17
2018-06-10T21:48:46.514Z,16.27
2018-06-10T21:51:15.433Z,13.70
2018-06-10T21:53:44.158Z,16.87
2018-06-10T21:56:12.914Z,16.63
2018-06-10T21:58:41.750Z,15.53
2018-06-10T22:01:10.584Z,14.30
2018-06-10T22:03:39.298Z,12.70
2018-06-10T22:06:08.054Z,16.53
2018-06-10T22:08:36.511Z,14.10
2018-06-10T22:11:05.306Z,13.53
2018-06-10T22:13:34.155Z,15.33
2018-06-10T22:16:02.910Z,16.27
2018-06-10T22:18:32.059Z,19.77
2018-06-10T22:21:00.844Z,13.13
2018-06-10T22:23:29.672Z,18.90
2018-06-10T22:25:58.450Z,15.93
2018-06-10T22:28:27.241Z,14.40
2018-06-10T22:30:56.605Z,15.10
2018-06-10T22:33:25.391Z,14.63
2018-06-10T22:35:54.170Z,13.90
2018-06-10T22:38:22.946Z,18.93
2018-06-10T22:40:51.768Z,15.70
2018-06-10T22:43:20.542Z,17.80
2018-06-10T22:45:49.253Z,16.17
2018-06-10T22:48:17.981Z,20.03
2018-06-10T22:50:46.807Z,15.33
2018-06-10T22:53:28.710Z,17.20
2018-06-10T22:55:57.622Z,15.50
2018-06-10T22:58:26.410Z,16.60
2018-06-10T23:00:55.088Z,16.77
2018-06-10T23:03:23.917Z,17.93
2018-06-10T23:05:52.714Z,20.00
2018-06-10T23:08:21.407Z,14.00
2018-06-10T23:10:50.144Z,14.30
2018-06-10T23:13:18.929Z,13.93
2018-06-10T23:15:47.888Z,13.30
2018-06-10T23:18:16.821Z,16.33
2018-06-10T23:20:45.595Z,15.43
2018-06-10T23:23:14.556Z,13.47
2018-06-10T23:25:43.376Z,14.80
2018-06-10T23:28:12.190Z,16.10
2018-06-10T23:30:41.218Z,14.03
2018-06-10T23:33:10.054Z,14.67
2018-06-10T23:35:39.571Z,14.37
2018-06-10T23:38:08.490Z,15.87
2018-06-10T23:40:37.303Z,14.10
2018-06-10T23:43:06.203Z,20.37
2018-06-10T23:45:34.992Z,15.07
2018-06-10T23:48:07.052Z,15.40
2018-06-10T23:50:36.202Z,16.43
2018-06-10T23:53:05.146Z,16.33
2018-06-10T23:55:33.890Z,11.43
2018-06-10T23:58:02.945Z,16.47
